CheckWX is a tool to help pilots better visualize weather data.  It is not intended as a substitute for an official pre-flight weather briefing.

09:24:30 UTC

KGYI METAR
North Texas Regional / Perrin Field Airport
Sherman/Denison, Texas, USA
Current

30 mins ago

KGYI 200855Z AUTO 27007KT 10SM BKN005 OVC015 03/02 A2994 RMK AO2 T00250020 TSNO
Observed
Feb-20 @ 08:55 UTC
Wind
  • 270° at 7 KTS
Visibility
16,093 meters
Flight Rules
IFR
Cloud Levels
  • Broken at 500' AGL
  • Overcast at 1,500' AGL
Temperature
C / 37°F
Dewpoint
C / 36°F
Humidity
93%
Altimeter
29.94" Hg
Pressure
1013.92 hPa
Previous

50 mins ago

KGYI 200835Z AUTO 27007KT 7SM OVC003 03/02 A2994 RMK AO2 T00260022 TSNO
Observed
Feb-20 @ 08:35 UTC
Wind
  • 270° at 7 KTS
Visibility
11,265 meters
Flight Rules
LIFR
Cloud Levels
  • Overcast at 300' AGL
Temperature
C / 37°F
Dewpoint
C / 36°F
Humidity
93%
Altimeter
29.94" Hg
Pressure
1013.92 hPa
Previous

1 hour ago

KGYI 200815Z AUTO 27005KT 5SM BR OVC003 03/02 A2993 RMK AO2 T00260023 TSNO
Observed
Feb-20 @ 08:15 UTC
Wind
  • 270° at 5 KTS
Visibility
8,047 meters
Flight Rules
LIFR
Conditions
Mist
Cloud Levels
  • Overcast at 300' AGL
Temperature
C / 37°F
Dewpoint
C / 36°F
Humidity
93%
Altimeter
29.93" Hg
Pressure
1013.52 hPa